createdAt,value
2022-10-06T00:01:55.561Z,99.9
2022-10-06T00:05:59.223Z,99.9
2022-10-06T00:08:01.047Z,99.9
2022-10-06T00:10:06.097Z,99.9
2022-10-06T00:12:07.901Z,99.9
2022-10-06T00:14:09.714Z,99.9
2022-10-06T00:16:11.570Z,99.9
2022-10-06T00:18:13.499Z,99.9
2022-10-06T00:20:15.184Z,99.9
2022-10-06T00:22:16.977Z,99.9
2022-10-06T00:26:23.871Z,99.9
2022-10-06T00:28:26.263Z,99.9
2022-10-06T00:30:27.531Z,99.9
2022-10-06T00:32:29.323Z,99.9
2022-10-06T00:36:33.427Z,99.9
2022-10-06T00:49:13.991Z,99.9
2022-10-06T00:57:24.490Z,99.9
2022-10-06T00:59:26.461Z,99.9
2022-10-06T01:03:29.938Z,99.9
2022-10-06T01:05:34.982Z,99.9
2022-10-06T01:07:36.787Z,99.9
2022-10-06T01:09:38.620Z,99.9
2022-10-06T01:11:40.447Z,99.9
2022-10-06T01:13:42.248Z,99.9
2022-10-06T01:15:44.162Z,99.9
2022-10-06T01:17:45.885Z,99.9
2022-10-06T01:19:50.958Z,99.9
2022-10-06T01:21:52.743Z,99.9
2022-10-06T01:23:54.561Z,99.9
2022-10-06T01:25:56.368Z,99.9
2022-10-06T01:27:58.280Z,99.9
2022-10-06T01:30:00.021Z,99.9
2022-10-06T01:32:01.828Z,99.9
2022-10-06T01:34:06.867Z,99.9
2022-10-06T01:36:08.696Z,99.9
2022-10-06T01:38:10.510Z,99.9
2022-10-06T01:39:13.016Z,99.9
2022-10-06T01:41:14.834Z,99.9
2022-10-06T01:43:16.654Z,99.9
2022-10-06T01:45:18.611Z,99.9
2022-10-06T01:47:23.521Z,99.9
2022-10-06T01:53:28.972Z,99.9
2022-10-06T01:59:34.411Z,99.9
2022-10-06T02:01:39.500Z,99.9
2022-10-06T02:03:41.278Z,99.9
2022-10-06T02:05:43.095Z,99.9
2022-10-06T02:07:44.893Z,99.9
2022-10-06T02:09:46.713Z,99.9
2022-10-06T02:11:48.502Z,99.9
2022-10-06T02:13:50.334Z,99.9
2022-10-06T02:15:55.404Z,99.9
2022-10-06T02:17:57.174Z,99.9
2022-10-06T02:19:58.995Z,99.9
2022-10-06T02:22:00.796Z,99.9
2022-10-06T02:24:02.601Z,99.9
2022-10-06T02:26:04.410Z,99.9
2022-10-06T02:28:06.251Z,99.9
2022-10-06T02:30:11.254Z,99.9
2022-10-06T02:32:13.087Z,99.9
2022-10-06T02:34:14.887Z,99.9
2022-10-06T02:43:27.841Z,99.9
2022-10-06T02:45:29.648Z,99.9
2022-10-06T02:47:31.464Z,99.9
2022-10-06T02:49:33.253Z,99.9
2022-10-06T02:51:35.236Z,99.9
2022-10-06T02:53:36.859Z,99.9
2022-10-06T02:55:38.666Z,99.9
2022-10-06T02:57:43.708Z,99.9
2022-10-06T02:59:45.501Z,99.9
2022-10-06T03:01:47.391Z,99.9
2022-10-06T03:03:49.105Z,99.9
2022-10-06T03:05:50.894Z,99.9
2022-10-06T03:07:52.715Z,99.9
2022-10-06T03:09:54.514Z,99.9
2022-10-06T03:16:04.710Z,99.9
2022-10-06T03:18:06.429Z,99.9
2022-10-06T03:20:08.208Z,99.9
2022-10-06T03:22:10.048Z,99.9
2022-10-06T03:24:11.808Z,99.9
2022-10-06T03:26:16.871Z,99.9
2022-10-06T03:28:18.689Z,99.9
2022-10-06T03:30:20.444Z,99.9
2022-10-06T03:31:23.052Z,99.9
2022-10-06T03:33:24.772Z,99.9
2022-10-06T03:35:26.559Z,99.9
2022-10-06T03:37:28.353Z,99.9
2022-10-06T03:39:33.362Z,99.9
2022-10-06T03:47:40.542Z,99.9
2022-10-06T03:55:50.952Z,99.9
2022-10-06T03:57:52.742Z,99.9
2022-10-06T04:05:59.921Z,99.9
2022-10-06T04:08:04.919Z,99.9
2022-10-06T04:14:10.302Z,99.9
2022-10-06T04:16:12.133Z,99.9
2022-10-06T04:20:15.672Z,99.9
2022-10-06T04:24:22.497Z,99.9
2022-10-06T04:26:24.281Z,99.9
2022-10-06T04:28:52.958Z,99.9
2022-10-06T04:30:54.753Z,99.9
2022-10-06T04:35:01.600Z,99.9
2022-10-06T04:37:03.354Z,99.9
2022-10-06T04:39:05.149Z,99.9
2022-10-06T04:41:06.949Z,99.9
2022-10-06T04:45:10.523Z,99.9
2022-10-06T04:47:12.332Z,99.9
2022-10-06T04:49:20.406Z,99.9
2022-10-06T04:53:20.924Z,99.9
2022-10-06T04:55:22.720Z,99.9
2022-10-06T04:57:24.520Z,99.9
2022-10-06T04:59:26.293Z,99.9
2022-10-06T05:01:28.186Z,99.9
2022-10-06T05:03:33.097Z,99.9
2022-10-06T05:05:34.884Z,99.9
2022-10-06T05:07:36.684Z,99.9
2022-10-06T05:09:38.466Z,99.9
2022-10-06T05:11:40.276Z,99.9
2022-10-06T05:13:42.069Z,99.9
2022-10-06T05:15:43.850Z,99.9
2022-10-06T05:17:48.875Z,99.9
2022-10-06T05:19:50.653Z,99.9
2022-10-06T05:21:52.450Z,99.9
2022-10-06T05:22:54.959Z,99.9
2022-10-06T05:24:56.746Z,99.9
2022-10-06T05:27:01.600Z,99.9
2022-10-06T05:29:00.300Z,99.9
2022-10-06T05:31:05.373Z,99.9
2022-10-06T05:33:07.096Z,99.9
2022-10-06T05:37:10.662Z,99.9
2022-10-06T05:39:12.368Z,99.9
2022-10-06T05:45:20.961Z,99.9
2022-10-06T05:47:22.715Z,99.9
2022-10-06T05:53:28.070Z,99.9
2022-10-06T05:55:29.835Z,99.9
2022-10-06T05:57:31.618Z,99.9
2022-10-06T05:59:36.651Z,99.9
2022-10-06T06:03:40.181Z,99.9
2022-10-06T06:05:41.990Z,99.9
2022-10-06T06:07:43.744Z,99.9
2022-10-06T06:09:45.543Z,99.9
2022-10-06T06:11:47.317Z,99.9
2022-10-06T06:13:52.324Z,99.9
2022-10-06T06:15:54.091Z,99.9
2022-10-06T06:17:55.875Z,99.9
2022-10-06T06:21:00.160Z,99.9
2022-10-06T06:23:01.925Z,99.9
2022-10-06T06:29:10.515Z,99.9
2022-10-06T06:33:14.055Z,99.9
2022-10-06T06:35:15.817Z,99.9
2022-10-06T06:37:17.592Z,99.9
2022-10-06T06:39:19.358Z,99.9
2022-10-06T06:47:29.724Z,99.9
2022-10-06T06:49:31.501Z,99.9
2022-10-06T06:51:33.294Z,99.9
2022-10-06T06:53:35.038Z,99.9
2022-10-06T06:55:40.060Z,99.9
2022-10-06T06:57:41.867Z,99.9
2022-10-06T06:59:43.645Z,99.9
2022-10-06T07:01:45.570Z,99.9
2022-10-06T07:07:50.779Z,99.9
2022-10-06T07:15:01.869Z,99.9
2022-10-06T07:17:03.672Z,99.9
2022-10-06T07:19:05.447Z,99.9
2022-10-06T07:21:07.245Z,99.9
2022-10-06T07:23:12.287Z,99.9
2022-10-06T07:25:14.076Z,99.9
2022-10-06T07:27:15.874Z,99.9
2022-10-06T07:29:17.695Z,99.9
2022-10-06T07:31:19.543Z,99.9
2022-10-06T07:33:21.474Z,99.9
2022-10-06T07:35:23.124Z,99.9
2022-10-06T07:37:28.202Z,99.9
2022-10-06T07:39:30.021Z,99.9
2022-10-06T07:41:31.833Z,99.9
2022-10-06T07:43:33.656Z,99.9
2022-10-06T07:45:35.589Z,99.9
2022-10-06T07:47:37.315Z,99.9
2022-10-06T07:49:39.154Z,99.9
2022-10-06T07:51:44.239Z,99.9
2022-10-06T07:53:46.127Z,99.9
2022-10-06T07:55:47.913Z,99.9
2022-10-06T07:57:49.755Z,99.9
2022-10-06T07:59:51.583Z,99.9
2022-10-06T08:01:53.479Z,99.9
2022-10-06T08:03:55.265Z,99.9
2022-10-06T08:06:00.356Z,99.9
2022-10-06T08:08:02.194Z,99.9
2022-10-06T08:10:04.020Z,99.9
2022-10-06T08:12:32.732Z,99.9
2022-10-06T08:14:34.545Z,99.9
2022-10-06T08:18:46.374Z,99.9
2022-10-06T08:20:43.339Z,99.9
2022-10-06T08:22:45.147Z,99.9
2022-10-06T08:28:50.674Z,99.9
2022-10-06T08:30:52.517Z,99.9
2022-10-06T08:32:57.615Z,99.9
2022-10-06T08:35:00.158Z,99.9
2022-10-06T08:37:19.296Z,99.9
2022-10-06T08:39:03.129Z,99.9
2022-10-06T08:41:04.958Z,99.9
2022-10-06T08:43:06.795Z,99.9
2022-10-06T08:45:10.164Z,99.9
2022-10-06T08:55:21.058Z,99.9
2022-10-06T08:57:22.928Z,99.9
2022-10-06T09:03:31.674Z,99.9
2022-10-06T09:05:33.514Z,99.9
2022-10-06T09:08:39.404Z,99.7
2022-10-06T09:10:41.239Z,99.7
2022-10-06T09:12:43.074Z,99.7
2022-10-06T09:47:24.107Z,94.1
2022-10-06T09:57:36.578Z,91.3
2022-10-06T09:59:40.340Z,91.7
2022-10-06T10:01:40.242Z,92.1
2022-10-06T10:02:42.852Z,92
2022-10-06T10:04:48.293Z,92.2
2022-10-06T10:06:46.462Z,92.5
2022-10-06T10:08:48.285Z,92.2
2022-10-06T10:10:53.379Z,93.5
2022-10-06T10:12:55.215Z,90.3
2022-10-06T10:14:57.052Z,88.6
2022-10-06T10:16:58.910Z,95.7
2022-10-06T10:19:00.738Z,97
2022-10-06T10:21:02.562Z,97.5
2022-10-06T10:23:04.402Z,97.3
2022-10-06T10:27:11.322Z,94.1
2022-10-06T10:29:13.159Z,93.9
2022-10-06T10:31:15.035Z,93.9
2022-10-06T10:33:16.929Z,93.3
2022-10-06T10:35:18.671Z,92.5
2022-10-06T10:37:20.501Z,92.4
2022-10-06T10:39:25.609Z,91.8
2022-10-06T10:43:29.285Z,91.9
2022-10-06T10:45:31.110Z,87.2
2022-10-06T10:47:32.949Z,87.6
2022-10-06T10:51:36.626Z,92.9
2022-10-06T10:53:42.695Z,83
2022-10-06T10:55:43.578Z,81
2022-10-06T10:57:45.400Z,79.5
2022-10-06T11:00:49.837Z,74.1
2022-10-06T11:04:53.463Z,69.3
2022-10-06T11:06:58.454Z,70.1
2022-10-06T11:09:00.171Z,71
2022-10-06T11:11:01.896Z,70.9
2022-10-06T11:13:03.622Z,68.7
2022-10-06T11:15:05.378Z,67.2
2022-10-06T11:17:07.197Z,62.6
2022-10-06T11:19:08.932Z,61.9
2022-10-06T11:25:17.533Z,61.1
2022-10-06T11:27:19.251Z,59.5
2022-10-06T11:29:20.991Z,59.1
2022-10-06T11:31:23.151Z,58.7
2022-10-06T11:33:24.533Z,58.4
2022-10-06T11:35:29.410Z,58.5
2022-10-06T11:37:31.134Z,58.1
2022-10-06T11:39:32.825Z,56.7
2022-10-06T11:43:36.252Z,49.7
2022-10-06T11:45:38.083Z,51.1
2022-10-06T11:47:39.706Z,51.3
2022-10-06T11:49:44.604Z,59.4
2022-10-06T11:51:46.287Z,66.5
2022-10-06T11:53:48.022Z,66.6
2022-10-06T11:56:16.441Z,47.7
2022-10-06T11:58:41.443Z,47.9
2022-10-06T12:00:19.848Z,48.7
2022-10-06T12:02:24.894Z,50.3
2022-10-06T12:08:29.849Z,51.1
2022-10-06T12:10:31.574Z,51
2022-10-06T12:12:33.274Z,55
2022-10-06T12:17:10.581Z,56.7
2022-10-06T12:18:41.563Z,56.7
2022-10-06T12:20:43.281Z,57.3
2022-10-06T12:22:44.996Z,61.1
2022-10-06T12:24:46.697Z,68.6
2022-10-06T12:26:48.427Z,68
2022-10-06T12:28:50.134Z,68.2
2022-10-06T12:30:55.168Z,77.5
2022-10-06T12:37:00.247Z,75.7
2022-10-06T12:39:02.087Z,76
2022-10-06T12:45:10.594Z,75.8
2022-10-06T12:47:12.324Z,76.2
2022-10-06T12:49:14.042Z,84.7
2022-10-06T12:54:20.288Z,84.6
2022-10-06T12:56:22.078Z,80.3
2022-10-06T13:00:29.064Z,86.7
2022-10-06T13:08:36.356Z,89.5
2022-10-06T13:12:43.294Z,85.5
2022-10-06T13:18:48.801Z,91.9
2022-10-06T13:20:50.634Z,93.3
2022-10-06T13:22:52.473Z,93.5
2022-10-06T13:24:54.323Z,93.6
2022-10-06T13:26:59.411Z,91.4
2022-10-06T13:29:01.261Z,91.2
2022-10-06T13:31:03.113Z,84.4
2022-10-06T13:33:04.949Z,84.1
2022-10-06T13:35:06.777Z,84.2
2022-10-06T13:37:08.819Z,82.9
2022-10-06T13:39:10.448Z,83.1
2022-10-06T13:41:15.579Z,82.7
2022-10-06T13:43:17.402Z,82.9
2022-10-06T13:45:19.231Z,83.4
2022-10-06T13:46:21.909Z,83.5
2022-10-06T13:48:23.626Z,83.4
2022-10-06T13:50:25.464Z,83.1
2022-10-06T13:52:27.333Z,83.2
2022-10-06T13:54:32.414Z,88.6
2022-10-06T13:58:36.091Z,89.5
2022-10-06T14:00:37.941Z,89.7
2022-10-06T14:02:40.038Z,90
2022-10-06T14:04:41.655Z,90.4
2022-10-06T14:06:43.454Z,90.1
2022-10-06T14:08:48.570Z,90.2
2022-10-06T14:10:50.387Z,90.9
2022-10-06T14:12:52.224Z,90.1
2022-10-06T14:14:54.076Z,89.9
2022-10-06T14:16:55.932Z,88.7
2022-10-06T14:18:57.764Z,86.7
2022-10-06T14:20:59.622Z,87.2
2022-10-06T14:23:04.715Z,89.2
2022-10-06T14:25:06.562Z,89.8
2022-10-06T14:27:08.403Z,90
2022-10-06T14:29:10.289Z,90.4
2022-10-06T14:31:14.482Z,85.5
2022-10-06T14:33:13.945Z,86.5
2022-10-06T14:35:15.784Z,86.5
2022-10-06T14:37:20.883Z,87.6
2022-10-06T14:39:22.717Z,87.4
2022-10-06T14:41:24.552Z,87.9
2022-10-06T14:42:27.115Z,89.8
2022-10-06T14:44:28.948Z,90.2
2022-10-06T14:46:30.818Z,90.8
2022-10-06T14:48:32.620Z,91.2
2022-10-06T14:50:37.747Z,92.2
2022-10-06T14:52:39.577Z,92.7
2022-10-06T14:54:41.410Z,93.7
2022-10-06T14:56:43.259Z,95.1
2022-10-06T14:58:46.677Z,95.3
2022-10-06T15:00:48.468Z,95.2
2022-10-06T15:02:50.383Z,95.7
2022-10-06T15:04:55.415Z,95.9
2022-10-06T15:06:57.247Z,95.7
2022-10-06T15:08:59.086Z,95.8
2022-10-06T15:11:00.942Z,96.1
2022-10-06T15:13:02.784Z,95.6
2022-10-06T15:15:04.621Z,95.4
2022-10-06T15:19:11.559Z,95.3
2022-10-06T15:21:13.390Z,95.4
2022-10-06T15:23:15.249Z,95.8
2022-10-06T15:27:22.506Z,95.8
2022-10-06T15:29:20.768Z,95.9
2022-10-06T15:31:22.650Z,95.9
2022-10-06T15:33:27.722Z,95.9
2022-10-06T15:35:29.548Z,95.8
2022-10-06T15:37:31.409Z,95.5
2022-10-06T15:42:02.219Z,92.5
2022-10-06T15:44:03.772Z,92.3
2022-10-06T15:46:08.953Z,94
2022-10-06T15:48:10.718Z,94.3
2022-10-06T15:52:14.385Z,94.5
2022-10-06T15:56:18.086Z,94.4
2022-10-06T15:58:19.921Z,94.3
2022-10-06T16:00:25.023Z,94.8
2022-10-06T16:08:32.440Z,96.2
2022-10-06T16:10:34.231Z,96.6
2022-10-06T16:12:36.067Z,96.9
2022-10-06T16:14:41.204Z,97.7
2022-10-06T16:16:43.949Z,98
2022-10-06T16:18:44.859Z,98.5
2022-10-06T16:20:46.708Z,98.9
2022-10-06T16:22:48.593Z,99.2
2022-10-06T16:24:50.393Z,99.5
2022-10-06T16:26:52.259Z,99.7
2022-10-06T16:28:57.344Z,99.9
2022-10-06T16:30:59.259Z,99.9
2022-10-06T16:33:01.031Z,99.9
2022-10-06T16:34:03.565Z,99.9
2022-10-06T16:36:05.464Z,99.9
2022-10-06T16:38:07.263Z,99.9
2022-10-06T16:40:09.113Z,99.9
2022-10-06T16:42:14.201Z,99.9
2022-10-06T16:44:16.026Z,99.9
2022-10-06T16:52:23.425Z,99.9
2022-10-06T16:56:30.366Z,99.9
2022-10-06T17:00:34.136Z,99.9
2022-10-06T17:02:36.129Z,99.9
2022-10-06T17:04:37.743Z,99.9
2022-10-06T17:06:39.572Z,99.9
2022-10-06T17:08:41.411Z,99.9
2022-10-06T17:10:46.504Z,99.9
2022-10-06T17:12:48.333Z,99.9
2022-10-06T17:18:53.871Z,99.9
2022-10-06T17:20:55.702Z,99.9
2022-10-06T17:22:57.538Z,99.9
2022-10-06T17:25:02.638Z,99.9
2022-10-06T17:27:04.490Z,99.9
2022-10-06T17:29:06.324Z,99.9
2022-10-06T17:30:08.862Z,99.9
2022-10-06T17:32:10.687Z,99.9
2022-10-06T17:36:14.364Z,99.9
2022-10-06T17:38:19.470Z,99.9
2022-10-06T17:42:23.153Z,99.9
2022-10-06T17:44:24.993Z,99.9
2022-10-06T17:46:26.814Z,99.9
2022-10-06T17:48:28.649Z,99.9
2022-10-06T17:52:35.580Z,99.9
2022-10-06T17:54:37.416Z,99.9
2022-10-06T17:56:39.235Z,99.9
2022-10-06T17:58:41.093Z,99.9
2022-10-06T18:00:43.008Z,99.9
2022-10-06T18:02:45.291Z,99.9
2022-10-06T18:04:46.603Z,99.9
2022-10-06T18:06:51.656Z,99.9
2022-10-06T18:08:53.494Z,99.9
2022-10-06T18:10:59.108Z,99.9
2022-10-06T18:12:57.152Z,99.9
2022-10-06T18:17:01.030Z,99.9
2022-10-06T18:21:07.725Z,99.9
2022-10-06T18:23:09.557Z,99.9
2022-10-06T18:25:11.393Z,99.9
2022-10-06T18:26:13.927Z,99.9
2022-10-06T18:28:15.841Z,99.9
2022-10-06T18:30:17.564Z,99.9
2022-10-06T18:36:26.360Z,99.9
2022-10-06T18:38:28.110Z,99.9
2022-10-06T18:40:29.938Z,99.9
2022-10-06T18:42:31.777Z,99.9
2022-10-06T18:44:33.592Z,99.9
2022-10-06T18:46:35.412Z,99.9
2022-10-06T18:48:40.466Z,99.9
2022-10-06T18:52:44.140Z,99.9
2022-10-06T18:54:45.958Z,99.9
2022-10-06T18:56:47.774Z,99.9
2022-10-06T18:58:49.593Z,99.9
2022-10-06T19:00:51.503Z,99.9
2022-10-06T19:02:56.474Z,99.9
2022-10-06T19:04:58.266Z,99.9
2022-10-06T19:07:00.110Z,99.9
2022-10-06T19:11:03.728Z,99.9
2022-10-06T19:13:05.552Z,99.9
2022-10-06T19:15:07.355Z,99.9
2022-10-06T19:17:12.427Z,99.9
2022-10-06T19:19:14.232Z,99.9
2022-10-06T19:21:16.045Z,99.9
2022-10-06T19:23:44.760Z,99.9
2022-10-06T19:25:46.560Z,99.9
2022-10-06T19:27:48.393Z,99.9
2022-10-06T19:29:53.444Z,99.9
2022-10-06T19:31:55.244Z,99.9
2022-10-06T19:33:57.044Z,99.9
2022-10-06T19:35:59.003Z,99.9
2022-10-06T19:38:00.667Z,99.9
2022-10-06T19:40:02.585Z,99.9
2022-10-06T19:42:04.302Z,99.9
2022-10-06T19:44:09.371Z,99.9
2022-10-06T19:46:11.231Z,99.9
2022-10-06T19:48:12.970Z,99.9
2022-10-06T19:50:14.770Z,99.9
2022-10-06T19:52:16.569Z,99.9
2022-10-06T19:54:18.379Z,99.9
2022-10-06T19:56:20.340Z,99.9
2022-10-06T19:58:25.220Z,99.9
2022-10-06T20:00:26.999Z,99.9
2022-10-06T20:02:29.157Z,99.9
2022-10-06T20:04:30.730Z,99.9
2022-10-06T20:08:34.189Z,99.9
2022-10-06T20:10:36.011Z,99.9
2022-10-06T20:12:41.018Z,99.9
2022-10-06T20:16:44.687Z,99.9
2022-10-06T20:17:47.560Z,99.9
2022-10-06T20:19:50.253Z,99.9
2022-10-06T20:21:50.696Z,99.9
2022-10-06T20:23:52.505Z,99.9
2022-10-06T20:25:57.553Z,99.9
2022-10-06T20:27:59.423Z,99.9
2022-10-06T20:30:01.155Z,99.9
2022-10-06T20:32:02.952Z,99.9
2022-10-06T20:34:04.732Z,99.9
2022-10-06T20:36:06.513Z,99.9
2022-10-06T20:38:08.326Z,99.9
2022-10-06T20:40:13.359Z,99.9
2022-10-06T20:42:15.622Z,99.9
2022-10-06T20:44:16.939Z,99.9
2022-10-06T20:46:18.807Z,99.9
2022-10-06T20:48:20.544Z,99.9
2022-10-06T20:50:23.886Z,99.9
2022-10-06T20:52:25.640Z,99.9
2022-10-06T20:54:30.633Z,99.9
2022-10-06T20:56:32.457Z,99.9
2022-10-06T20:58:34.216Z,99.9
2022-10-06T21:00:36.046Z,99.9
2022-10-06T21:02:37.904Z,99.9
2022-10-06T21:04:39.630Z,99.9
2022-10-06T21:06:41.386Z,99.9
2022-10-06T21:08:46.449Z,99.9
2022-10-06T21:10:48.239Z,99.9
2022-10-06T21:12:49.986Z,99.9
2022-10-06T21:13:52.531Z,99.9
2022-10-06T21:15:54.373Z,99.9
2022-10-06T21:17:56.129Z,99.9
2022-10-06T21:19:57.860Z,99.9
2022-10-06T21:22:02.928Z,99.9
2022-10-06T21:24:04.698Z,99.9
2022-10-06T21:26:06.495Z,99.9
2022-10-06T21:28:08.342Z,99.9
2022-10-06T21:30:10.076Z,99.9
2022-10-06T21:32:11.857Z,99.9
2022-10-06T21:34:13.629Z,99.9
2022-10-06T21:36:18.643Z,99.9
2022-10-06T21:38:20.425Z,99.9
2022-10-06T21:40:22.184Z,99.9
2022-10-06T21:42:23.951Z,99.9
2022-10-06T21:44:25.738Z,99.9
2022-10-06T21:46:28.899Z,99.9
2022-10-06T21:48:29.292Z,99.9
2022-10-06T21:50:34.347Z,99.9
2022-10-06T21:52:36.093Z,99.9
2022-10-06T21:54:37.913Z,99.9
2022-10-06T21:56:39.652Z,99.9
2022-10-06T21:58:41.466Z,99.9
2022-10-06T22:00:43.245Z,99.9
2022-10-06T22:02:45.092Z,99.9
2022-10-06T22:04:49.998Z,99.9
2022-10-06T22:06:51.827Z,99.9
2022-10-06T22:08:53.558Z,99.9
2022-10-06T22:13:59.623Z,99.9
2022-10-06T22:16:01.487Z,99.9
2022-10-06T22:18:06.430Z,99.9
2022-10-06T22:20:08.246Z,99.9
2022-10-06T22:22:10.005Z,99.9
2022-10-06T22:24:11.829Z,99.9
2022-10-06T22:26:13.563Z,99.9
2022-10-06T22:28:15.432Z,99.9
2022-10-06T22:30:17.168Z,99.9
2022-10-06T22:32:22.207Z,99.9
2022-10-06T22:34:24.055Z,99.9
2022-10-06T22:36:25.747Z,99.9
2022-10-06T22:38:27.572Z,99.9
2022-10-06T22:40:29.351Z,99.9
2022-10-06T22:42:31.100Z,99.9
2022-10-06T22:44:32.903Z,99.9
2022-10-06T22:48:39.767Z,99.9
2022-10-06T22:50:41.584Z,99.9
2022-10-06T22:54:45.150Z,99.9
2022-10-06T22:56:46.952Z,99.9
2022-10-06T23:00:53.791Z,99.9
2022-10-06T23:02:55.599Z,99.9
2022-10-06T23:04:57.317Z,99.9
2022-10-06T23:07:26.049Z,99.9
2022-10-06T23:09:27.821Z,99.9
2022-10-06T23:11:29.609Z,99.9
2022-10-06T23:13:34.627Z,99.9
2022-10-06T23:15:36.433Z,99.9
2022-10-06T23:17:38.228Z,99.9
2022-10-06T23:23:43.622Z,99.9
2022-10-06T23:25:45.422Z,99.9
2022-10-06T23:29:52.264Z,99.9
2022-10-06T23:31:54.199Z,99.9
2022-10-06T23:33:55.848Z,99.9
2022-10-06T23:35:57.686Z,99.9
2022-10-06T23:37:59.440Z,99.9
2022-10-06T23:40:01.245Z,99.9
2022-10-06T23:42:06.271Z,99.9
2022-10-06T23:44:08.094Z,99.9
2022-10-06T23:46:09.975Z,99.9
2022-10-06T23:48:11.689Z,99.9
2022-10-06T23:50:13.485Z,99.9
2022-10-06T23:52:15.283Z,99.9
2022-10-06T23:54:17.061Z,99.9
2022-10-06T23:56:22.104Z,99.9
2022-10-06T23:58:23.908Z,99.9
